Time;durP1;ratioP1;P1;durP2;ratioP2;P2;SDS_P1;SDS_P2;PMS_P1;PMS_P2;Temp;Humidity;BMP_temperature;BMP_pressure;BME280_temperature;BME280_humidity;BME280_pressure;Samples;Min_cycle;Max_cycle;Signal;HPM_P1;HPM_P2
2022/06/08 00:01:31;;;;;;;2.17;1.57;;;25.80;59.10;;;;;;5146087;27;20451;-63
2022/06/08 00:04:05;;;;;;;1.30;1.20;;;25.50;59.00;;;;;;5144791;27;20460;-63
2022/06/08 00:06:36;;;;;;;1.33;1.23;;;25.20;59.80;;;;;;5145031;27;20485;-63
2022/06/08 00:09:07;;;;;;;1.23;1.13;;;25.00;60.50;;;;;;5143576;27;20454;-63
2022/06/08 00:11:38;;;;;;;1.00;1.00;;;24.90;62.10;;;;;;5144814;27;20450;-62
2022/06/08 00:14:09;;;;;;;1.20;1.10;;;24.80;62.70;;;;;;5139585;27;20480;-62
2022/06/08 00:16:39;;;;;;;1.07;1.00;;;24.60;62.60;;;;;;5142376;27;20449;-62
2022/06/08 00:19:12;;;;;;;0.90;0.90;;;24.40;62.90;;;;;;5141901;27;20475;-62
2022/06/08 00:21:43;;;;;;;1.53;0.93;;;24.40;62.10;;;;;;5143780;27;20456;-63
2022/06/08 00:24:14;;;;;;;0.80;0.80;;;24.30;62.40;;;;;;5136350;27;20445;-62
2022/06/08 00:26:44;;;;;;;2.40;1.07;;;24.10;62.90;;;;;;5138612;27;20497;-62
2022/06/08 00:29:18;;;;;;;1.07;0.97;;;24.00;63.60;;;;;;5141635;27;20490;-63
2022/06/08 00:31:48;;;;;;;1.27;1.17;;;23.80;63.80;;;;;;5138469;27;20463;-63
2022/06/08 00:34:22;;;;;;;0.80;0.80;;;23.90;63.50;;;;;;5139921;27;20554;-63
2022/06/08 00:36:53;;;;;;;1.80;0.70;;;23.90;61.10;;;;;;5140959;27;20453;-63
2022/06/08 00:39:24;;;;;;;1.37;1.23;;;23.80;60.50;;;;;;5138643;27;20457;-63
2022/06/08 00:41:59;;;;;;;1.00;0.90;;;23.80;62.20;;;;;;5132971;27;20460;-63
2022/06/08 00:44:33;;;;;;;1.87;0.90;;;23.70;62.30;;;;;;5144185;27;20437;-64
2022/06/08 00:47:05;;;;;;;1.07;0.97;;;23.70;61.50;;;;;;5144907;27;20488;-63
2022/06/08 00:49:41;;;;;;;0.90;0.83;;;23.70;62.50;;;;;;5130142;27;20467;-64
2022/06/08 00:52:15;;;;;;;1.10;1.07;;;23.50;63.90;;;;;;5144606;27;20483;-64
2022/06/08 00:54:51;;;;;;;1.30;1.20;;;23.40;65.70;;;;;;5142608;27;20460;-63
2022/06/08 00:57:27;;;;;;;1.47;1.07;;;23.30;66.40;;;;;;5138310;27;20472;-63
2022/06/08 01:00:02;;;;;;;1.50;1.40;;;23.20;66.70;;;;;;5138582;27;20459;-64
2022/06/08 01:02:33;;;;;;;1.50;1.40;;;23.10;67.70;;;;;;5139389;27;20520;-66
2022/06/08 01:05:26;;;;;;;1.10;1.00;;;23.00;69.10;;;;;;5140111;27;20449;-64
2022/06/08 01:07:59;;;;;;;1.40;1.30;;;23.00;69.50;;;;;;5137982;27;20489;-65
2022/06/08 01:10:43;;;;;;;1.50;1.30;;;22.90;69.70;;;;;;5140846;27;20480;-65
2022/06/08 01:13:14;;;;;;;1.40;1.30;;;22.90;70.10;;;;;;5140770;27;20471;-65
2022/06/08 01:15:45;;;;;;;1.17;1.07;;;22.90;71.40;;;;;;5128978;27;20467;-65
2022/06/08 01:18:16;;;;;;;1.50;1.40;;;22.80;72.70;;;;;;5142587;27;20453;-64
2022/06/08 01:20:54;;;;;;;1.63;1.53;;;22.60;73.60;;;;;;5142311;27;20467;-67
2022/06/08 01:23:28;;;;;;;1.57;1.47;;;22.60;74.10;;;;;;5142740;27;20507;-65
2022/06/08 01:26:12;;;;;;;1.83;1.60;;;22.50;74.20;;;;;;5134189;27;20449;-65
2022/06/08 01:28:54;;;;;;;1.70;1.60;;;22.40;80.50;;;;;;5132306;27;20461;-64
2022/06/08 01:31:33;;;;;;;1.37;1.27;;;22.60;74.20;;;;;;5142166;27;20463;-65
2022/06/08 01:34:12;;;;;;;1.97;1.50;;;22.60;73.90;;;;;;5139138;27;20519;-65
2022/06/08 01:37:09;;;;;;;4.63;4.23;;;22.60;74.90;;;;;;5142316;27;20436;-64
2022/06/08 01:39:56;;;;;;;2.63;2.17;;;22.60;74.80;;;;;;5136068;27;20464;-65
2022/06/08 01:42:42;;;;;;;2.00;1.70;;;22.50;75.00;;;;;;5142918;27;20467;-65
2022/06/08 01:45:33;;;;;;;2.43;2.23;;;22.40;77.40;;;;;;5142036;27;20440;-65
2022/06/08 01:48:28;;;;;;;2.00;1.90;;;22.40;77.30;;;;;;5141953;27;20472;-64
2022/06/08 01:51:06;;;;;;;2.50;1.70;;;22.20;79.50;;;;;;5134208;27;20441;-65
2022/06/08 01:53:50;;;;;;;1.80;1.70;;;22.00;80.70;;;;;;5142575;27;20460;-64
2022/06/08 01:56:34;;;;;;;1.67;1.57;;;21.90;82.50;;;;;;5136256;27;20476;-65
2022/06/08 01:59:17;;;;;;;2.13;1.93;;;21.90;84.20;;;;;;5142058;27;20445;-64
2022/06/08 02:01:53;;;;;;;2.60;2.13;;;21.80;84.10;;;;;;5142850;27;20452;-65
2022/06/08 02:04:30;;;;;;;1.80;1.70;;;21.80;84.50;;;;;;5142093;27;20456;-65
2022/06/08 02:07:09;;;;;;;1.73;1.63;;;21.70;85.30;;;;;;5144537;27;20486;-66
2022/06/08 02:09:43;;;;;;;2.13;1.60;;;21.70;85.40;;;;;;5139042;27;20452;-66
2022/06/08 02:12:16;;;;;;;2.53;2.00;;;21.70;86.30;;;;;;5143271;27;20450;-65
2022/06/08 02:14:52;;;;;;;2.10;1.90;;;21.70;87.80;;;;;;5137813;27;20464;-66
2022/06/08 02:17:28;;;;;;;2.00;1.80;;;21.60;88.70;;;;;;5138238;27;20456;-66
2022/06/08 02:20:03;;;;;;;2.43;2.20;;;21.60;89.70;;;;;;5137352;28;20811;-67
2022/06/08 02:22:40;;;;;;;2.20;2.00;;;21.50;90.50;;;;;;5138640;28;20429;-67
2022/06/08 02:25:16;;;;;;;2.90;1.83;;;21.60;90.90;;;;;;5141003;27;20472;-67
2022/06/08 02:27:53;;;;;;;2.47;2.27;;;21.50;91.50;;;;;;5123181;28;20868;-69
2022/06/08 02:30:27;;;;;;;2.37;2.17;;;21.50;91.90;;;;;;5138752;28;20460;-67
2022/06/08 02:35:54;;;;;;;2.50;2.30;;;21.40;93.00;;;;;;5132499;28;20487;-66
2022/06/08 02:38:36;;;;;;;2.73;2.07;;;21.40;93.60;;;;;;5141780;27;20483;-67
2022/06/08 02:41:10;;;;;;;3.20;2.60;;;21.40;94.20;;;;;;5136496;28;20467;-67
2022/06/08 02:43:46;;;;;;;2.43;2.23;;;21.40;94.80;;;;;;5142740;27;20564;-67
2022/06/08 02:46:24;;;;;;;2.10;1.90;;;21.30;95.30;;;;;;5141977;28;20569;-68
2022/06/08 02:48:55;;;;;;;2.20;2.07;;;21.20;96.40;;;;;;5141614;27;20457;-68
2022/06/08 02:51:34;;;;;;;2.63;2.27;;;21.10;96.50;;;;;;5141670;27;20457;-68
2022/06/08 02:54:07;;;;;;;2.93;2.37;;;21.10;97.00;;;;;;5138295;27;20435;-67
2022/06/08 02:56:59;;;;;;;2.70;2.50;;;21.10;97.00;;;;;;5127717;28;20472;-66
2022/06/08 02:59:40;;;;;;;1.73;1.63;;;21.10;97.00;;;;;;5139160;27;20477;-66
2022/06/08 03:02:17;;;;;;;2.43;2.23;;;21.00;97.60;;;;;;5137414;27;20482;-66
2022/06/08 03:04:59;;;;;;;2.00;1.77;;;21.00;98.00;;;;;;5142016;27;20448;-66
2022/06/08 03:07:33;;;;;;;1.90;1.77;;;20.90;98.60;;;;;;5141498;28;21006;-66
2022/06/08 03:10:08;;;;;;;2.47;2.30;;;20.90;98.70;;;;;;5139771;27;20467;-66
2022/06/08 03:12:42;;;;;;;1.60;1.50;;;20.90;98.70;;;;;;5127681;28;20450;-66
2022/06/08 03:15:18;;;;;;;2.73;2.47;;;20.90;99.10;;;;;;5141494;27;20494;-66
2022/06/08 03:17:50;;;;;;;1.93;1.83;;;20.80;99.20;;;;;;5143765;27;20546;-65
2022/06/08 03:20:24;;;;;;;2.50;2.30;;;20.80;99.60;;;;;;5143594;27;20465;-65
2022/06/08 03:22:55;;;;;;;2.20;2.00;;;20.70;99.90;;;;;;5146664;27;20455;-66
2022/06/08 03:25:27;;;;;;;1.97;1.87;;;20.70;99.90;;;;;;5143861;27;20456;-65
2022/06/08 03:27:58;;;;;;;2.03;1.93;;;20.70;99.90;;;;;;5146549;27;20490;-66
2022/06/08 03:30:30;;;;;;;2.70;2.30;;;20.70;99.90;;;;;;5137297;27;20436;-66
2022/06/08 03:33:01;;;;;;;1.87;1.70;;;20.70;99.90;;;;;;5140090;27;20780;-67
2022/06/08 03:35:32;;;;;;;2.30;2.10;;;20.60;99.90;;;;;;5143597;27;20435;-67
2022/06/08 03:38:03;;;;;;;2.00;1.80;;;20.70;99.90;;;;;;5141243;27;20448;-65
2022/06/08 03:40:34;;;;;;;2.23;2.03;;;20.60;99.90;;;;;;5143002;27;20464;-66
2022/06/08 03:43:05;;;;;;;3.83;2.63;;;20.60;99.90;;;;;;5153273;27;20750;-66
2022/06/08 03:45:44;;;;;;;2.07;1.97;;;20.50;99.90;;;;;;5144293;27;20467;-66
2022/06/08 03:48:16;;;;;;;2.23;2.03;;;20.50;99.90;;;;;;5142450;27;20467;-65
2022/06/08 03:50:51;;;;;;;2.30;2.10;;;20.50;99.90;;;;;;5137076;27;20467;-65
2022/06/08 03:53:25;;;;;;;2.10;1.93;;;20.50;99.90;;;;;;5132525;27;20472;-65
2022/06/08 03:55:59;;;;;;;2.07;1.97;;;20.40;99.90;;;;;;5143860;27;20460;-66
2022/06/08 03:58:30;;;;;;;1.90;1.80;;;20.40;99.90;;;;;;5149736;27;20515;-65
2022/06/08 04:01:03;;;;;;;3.03;2.60;;;20.40;99.90;;;;;;5132793;27;20461;-65
2022/06/08 04:03:34;;;;;;;2.20;2.10;;;20.40;99.90;;;;;;5146306;27;20755;-65
2022/06/08 04:06:05;;;;;;;2.03;1.90;;;20.40;99.90;;;;;;5134658;27;20474;-65
2022/06/08 04:08:38;;;;;;;2.00;1.90;;;20.40;99.90;;;;;;5149316;27;20494;-65
2022/06/08 04:11:08;;;;;;;2.47;2.00;;;20.40;99.90;;;;;;5142860;27;20435;-66
2022/06/08 04:13:40;;;;;;;2.40;2.20;;;20.30;99.90;;;;;;5143706;27;20423;-65
2022/06/08 04:16:12;;;;;;;2.37;2.17;;;20.30;99.90;;;;;;5146537;27;21171;-65
2022/06/08 04:18:43;;;;;;;2.13;1.80;;;20.30;99.90;;;;;;5127316;27;20516;-65
2022/06/08 04:21:16;;;;;;;2.60;2.40;;;20.30;99.90;;;;;;5133379;27;20448;-64
2022/06/08 04:23:49;;;;;;;2.27;2.07;;;20.30;99.90;;;;;;5161925;27;20427;-65
2022/06/08 04:26:20;;;;;;;2.10;2.00;;;20.30;99.90;;;;;;5144479;27;20454;-65
2022/06/08 04:28:51;;;;;;;2.57;2.37;;;20.20;99.90;;;;;;5158605;27;20471;-65
2022/06/08 04:31:24;;;;;;;2.70;1.97;;;20.20;99.90;;;;;;5149946;27;20421;-65
2022/06/08 04:33:55;;;;;;;1.83;1.70;;;20.20;99.90;;;;;;5124398;28;20444;-65
2022/06/08 04:36:26;;;;;;;2.23;1.70;;;20.20;99.90;;;;;;5137333;27;20543;-65
2022/06/08 04:38:57;;;;;;;2.27;2.17;;;20.20;99.90;;;;;;5140004;27;20465;-65
2022/06/08 04:41:28;;;;;;;3.03;2.33;;;20.20;99.90;;;;;;5159668;27;20437;-66
2022/06/08 04:43:59;;;;;;;2.50;2.20;;;20.20;99.90;;;;;;5125158;28;20430;-64
2022/06/08 04:46:31;;;;;;;2.10;2.00;;;20.20;99.90;;;;;;5141873;27;20453;-66
2022/06/08 04:49:02;;;;;;;2.13;2.00;;;20.10;99.90;;;;;;5143320;27;21049;-67
2022/06/08 04:51:34;;;;;;;2.50;2.40;;;20.00;99.90;;;;;;5144804;27;20471;-67
2022/06/08 04:54:05;;;;;;;1.97;1.87;;;20.00;99.90;;;;;;5129039;27;20461;-67
2022/06/08 04:56:35;;;;;;;1.80;1.70;;;20.00;99.90;;;;;;5145057;27;20451;-66
2022/06/08 04:59:06;;;;;;;1.90;1.80;;;20.00;99.90;;;;;;5145280;27;20413;-66
2022/06/08 05:01:39;;;;;;;1.60;1.50;;;20.00;99.90;;;;;;5145438;27;20798;-65
2022/06/08 05:04:10;;;;;;;1.90;1.80;;;20.00;99.90;;;;;;5144341;27;20502;-65
2022/06/08 05:06:40;;;;;;;2.00;1.90;;;19.90;99.90;;;;;;5153684;27;20450;-65
2022/06/08 05:09:11;;;;;;;2.40;2.20;;;19.90;99.90;;;;;;5149227;27;20539;-65
2022/06/08 05:11:42;;;;;;;2.03;1.90;;;19.80;99.90;;;;;;5143012;27;20856;-64
2022/06/08 05:14:13;;;;;;;2.30;2.10;;;19.80;99.90;;;;;;5144779;27;20416;-66
2022/06/08 05:16:46;;;;;;;2.47;2.27;;;19.80;99.90;;;;;;5151055;27;20423;-65
2022/06/08 05:19:16;;;;;;;2.03;1.90;;;19.70;99.90;;;;;;5144155;27;20440;-65
2022/06/08 05:21:47;;;;;;;2.23;2.13;;;19.70;99.90;;;;;;5145492;27;20423;-64
2022/06/08 05:24:18;;;;;;;2.40;2.20;;;19.70;99.90;;;;;;5143995;27;20537;-64
2022/06/08 05:26:49;;;;;;;2.07;1.87;;;19.60;99.90;;;;;;5153918;27;20468;-65
2022/06/08 05:29:19;;;;;;;2.53;2.30;;;19.60;99.90;;;;;;5141095;27;20532;-66
2022/06/08 05:31:52;;;;;;;2.40;2.20;;;19.60;99.90;;;;;;5144482;27;20434;-66
2022/06/08 05:34:23;;;;;;;2.30;2.10;;;19.50;99.90;;;;;;5139656;27;20537;-66
2022/06/08 05:36:54;;;;;;;2.13;1.93;;;19.50;99.90;;;;;;5136622;27;20926;-66
2022/06/08 05:39:25;;;;;;;2.00;1.90;;;19.40;99.90;;;;;;5141698;27;20427;-66
2022/06/08 05:41:56;;;;;;;2.90;2.70;;;19.40;99.90;;;;;;5144227;27;20403;-66
2022/06/08 05:44:27;;;;;;;2.43;2.23;;;19.40;99.90;;;;;;5143763;27;20423;-65
2022/06/08 05:47:02;;;;;;;2.17;2.00;;;19.40;99.90;;;;;;5137458;27;20492;-66
2022/06/08 05:49:34;;;;;;;3.00;2.80;;;19.30;99.90;;;;;;5139861;27;20466;-66
2022/06/08 05:52:07;;;;;;;2.23;2.03;;;19.20;99.90;;;;;;5144145;27;20835;-66
2022/06/08 05:54:37;;;;;;;2.13;2.00;;;19.10;99.90;;;;;;5146162;27;20416;-66
2022/06/08 05:57:08;;;;;;;2.00;1.80;;;19.00;99.90;;;;;;5155614;27;20429;-65
2022/06/08 05:59:39;;;;;;;2.07;1.97;;;18.90;99.90;;;;;;5143842;27;20440;-65
2022/06/08 06:02:15;;;;;;;2.30;1.90;;;18.90;99.90;;;;;;5140794;27;20467;-66
2022/06/08 06:04:46;;;;;;;2.20;2.00;;;18.80;99.90;;;;;;5135043;27;20482;-65
2022/06/08 06:07:18;;;;;;;2.10;1.93;;;18.60;99.90;;;;;;5130262;27;20468;-66
2022/06/08 06:09:49;;;;;;;1.97;1.83;;;18.60;99.90;;;;;;5141625;27;20488;-65
2022/06/08 06:12:27;;;;;;;1.83;1.60;;;18.50;99.90;;;;;;5141978;27;20456;-66
2022/06/08 06:15:01;;;;;;;1.83;1.73;;;18.50;99.90;;;;;;5133337;27;20426;-65
2022/06/08 06:17:35;;;;;;;1.67;1.57;;;18.40;99.90;;;;;;5137407;27;20858;-66
2022/06/08 06:20:07;;;;;;;3.43;1.60;;;18.50;99.90;;;;;;5136235;28;20446;-66
2022/06/08 06:22:38;;;;;;;1.90;1.80;;;18.50;99.90;;;;;;5142505;27;20556;-65
2022/06/08 06:25:10;;;;;;;1.80;1.70;;;18.50;99.90;;;;;;5142991;27;20447;-65
2022/06/08 06:27:41;;;;;;;1.70;1.60;;;18.40;99.90;;;;;;5142488;27;20492;-66
2022/06/08 06:30:13;;;;;;;1.63;1.53;;;18.40;99.90;;;;;;5140598;27;20459;-65
2022/06/08 06:32:47;;;;;;;1.70;1.60;;;18.40;99.90;;;;;;5144059;27;20442;-66
2022/06/08 06:35:21;;;;;;;1.73;1.50;;;18.40;99.90;;;;;;5142994;28;20832;-65
2022/06/08 06:37:52;;;;;;;1.67;1.57;;;18.30;99.90;;;;;;5138926;27;20537;-66
2022/06/08 06:40:24;;;;;;;1.90;1.73;;;18.30;99.90;;;;;;5140032;27;20480;-65
2022/06/08 06:42:55;;;;;;;1.80;1.70;;;18.20;99.90;;;;;;5138069;27;20434;-66
2022/06/08 06:45:26;;;;;;;1.53;1.43;;;18.10;99.90;;;;;;5138414;28;20420;-65
2022/06/08 06:47:59;;;;;;;1.60;1.50;;;18.10;99.90;;;;;;5136090;27;20473;-65
2022/06/08 06:50:29;;;;;;;2.20;1.80;;;18.00;99.90;;;;;;5141554;27;20474;-66
2022/06/08 06:53:00;;;;;;;1.97;1.30;;;17.90;99.90;;;;;;5144239;27;20508;-66
2022/06/08 06:55:36;;;;;;;1.80;1.70;;;17.90;99.90;;;;;;5141297;27;20442;-66
2022/06/08 06:58:07;;;;;;;1.40;1.10;;;17.80;99.90;;;;;;5136382;27;20449;-67
2022/06/08 07:00:38;;;;;;;1.63;1.53;;;17.70;99.90;;;;;;5138562;27;20470;-66
2022/06/08 07:03:11;;;;;;;1.63;1.40;;;17.70;99.90;;;;;;5141993;27;20495;-66
2022/06/08 07:05:42;;;;;;;1.40;1.30;;;17.60;99.90;;;;;;5140407;27;20465;-66
2022/06/08 07:08:13;;;;;;;1.37;1.27;;;17.50;99.90;;;;;;5143362;27;20484;-66
2022/06/08 07:11:32;;;;;;;1.13;1.03;;;17.50;99.90;;;;;;5132225;27;20462;-66
2022/06/08 07:13:38;;;;;;;1.50;1.40;;;17.50;99.90;;;;;;5140286;27;20430;-66
2022/06/08 07:16:09;;;;;;;0.97;0.90;;;17.50;99.90;;;;;;5145642;27;20427;-66
2022/06/08 07:18:41;;;;;;;1.47;1.37;;;17.60;99.90;;;;;;5140901;27;20435;-65
2022/06/08 07:21:13;;;;;;;1.30;1.10;;;17.60;99.90;;;;;;5146705;27;20439;-65
2022/06/08 07:23:44;;;;;;;1.10;1.00;;;17.60;99.90;;;;;;5153706;27;20458;-65
2022/06/08 07:26:17;;;;;;;1.90;1.50;;;17.50;99.90;;;;;;5132907;27;20427;-65
2022/06/08 07:28:48;;;;;;;1.00;0.90;;;17.40;99.90;;;;;;5143500;27;20459;-66
2022/06/08 07:31:19;;;;;;;1.40;1.30;;;17.30;99.90;;;;;;5141279;27;20463;-66
2022/06/08 07:33:53;;;;;;;1.50;1.30;;;17.30;99.90;;;;;;5141442;27;20520;-66
2022/06/08 07:36:23;;;;;;;1.10;1.00;;;17.20;99.90;;;;;;5140506;27;20457;-66
2022/06/08 07:38:56;;;;;;;1.43;1.17;;;17.20;99.90;;;;;;5143141;27;20612;-65
2022/06/08 07:41:27;;;;;;;1.00;0.70;;;17.20;99.90;;;;;;5137031;27;20456;-65
2022/06/08 07:43:58;;;;;;;1.40;1.30;;;17.20;99.90;;;;;;5138703;27;20434;-65
2022/06/08 07:46:30;;;;;;;1.40;1.30;;;17.10;99.90;;;;;;5142602;27;20427;-65
2022/06/08 07:51:53;;;;;;;1.00;1.00;;;17.00;99.90;;;;;;5144020;27;20468;-65
2022/06/08 07:54:25;;;;;;;1.43;1.33;;;16.90;99.90;;;;;;5142955;27;20534;-65
2022/06/08 07:56:56;;;;;;;1.40;1.30;;;16.80;99.90;;;;;;5145268;27;20499;-65
2022/06/08 07:59:29;;;;;;;0.97;0.97;;;16.70;99.90;;;;;;5143761;27;20447;-65
2022/06/08 08:02:00;;;;;;;3.20;1.43;;;16.70;99.90;;;;;;5144130;27;20451;-66
2022/06/08 08:04:33;;;;;;;1.53;1.40;;;16.60;99.90;;;;;;5144787;27;20552;-65
2022/06/08 08:07:04;;;;;;;1.43;1.33;;;16.60;99.90;;;;;;5142830;27;20431;-66
2022/06/08 08:09:35;;;;;;;1.77;1.33;;;16.70;99.90;;;;;;5139053;27;20458;-65
2022/06/08 08:12:06;;;;;;;2.20;1.77;;;16.70;99.90;;;;;;5139867;27;20465;-65
2022/06/08 08:14:37;;;;;;;2.10;1.40;;;16.80;99.90;;;;;;5147728;27;20445;-65
2022/06/08 08:17:09;;;;;;;1.60;1.20;;;16.90;99.90;;;;;;5141349;27;20431;-66
2022/06/08 08:19:41;;;;;;;1.50;1.40;;;16.90;99.90;;;;;;5130462;27;20445;-65
2022/06/08 08:22:14;;;;;;;1.70;1.30;;;16.90;99.90;;;;;;5134550;27;20450;-65
2022/06/08 08:24:47;;;;;;;1.40;1.30;;;17.00;99.90;;;;;;5136156;27;20456;-65
2022/06/08 08:27:18;;;;;;;1.67;1.57;;;17.10;99.90;;;;;;5144287;27;20477;-64
2022/06/08 08:29:50;;;;;;;3.63;1.60;;;17.20;99.30;;;;;;5142251;27;22704;-65
2022/06/08 08:32:21;;;;;;;1.43;1.33;;;17.30;99.90;;;;;;5144212;27;20461;-65
2022/06/08 08:34:54;;;;;;;1.60;1.50;;;17.30;99.40;;;;;;5144381;27;20473;-65
2022/06/08 08:37:25;;;;;;;1.60;1.20;;;17.30;99.50;;;;;;5127025;27;20868;-65
2022/06/08 08:39:57;;;;;;;1.67;1.40;;;17.30;99.90;;;;;;5133417;27;20462;-65
2022/06/08 08:42:28;;;;;;;1.83;1.60;;;17.30;99.80;;;;;;5142236;27;20456;-65
2022/06/08 08:45:06;;;;;;;1.47;1.37;;;17.30;99.90;;;;;;5137736;27;20491;-65
2022/06/08 08:47:49;;;;;;;2.10;1.30;;;17.30;99.90;;;;;;5142005;27;20556;-65
2022/06/08 08:50:25;;;;;;;1.03;1.03;;;17.30;99.90;;;;;;5144843;27;20472;-65
2022/06/08 08:53:04;;;;;;;2.37;1.40;;;17.20;99.90;;;;;;5144330;27;20467;-65
2022/06/08 08:55:41;;;;;;;1.10;1.10;;;17.20;99.90;;;;;;5153006;27;20456;-65
2022/06/08 08:58:16;;;;;;;1.90;1.20;;;17.10;99.90;;;;;;5134406;27;20514;-65
2022/06/08 09:00:51;;;;;;;1.40;1.23;;;17.00;99.90;;;;;;5142152;27;20467;-65
2022/06/08 09:03:30;;;;;;;1.27;1.20;;;17.00;99.90;;;;;;5143646;27;20488;-64
2022/06/08 09:06:08;;;;;;;1.17;1.17;;;17.00;99.90;;;;;;5137706;27;20454;-65
2022/06/08 09:08:39;;;;;;;1.37;1.27;;;16.90;99.90;;;;;;5138198;27;20887;-65
2022/06/08 09:11:16;;;;;;;1.17;0.97;;;16.80;99.90;;;;;;5142128;27;20488;-65
2022/06/08 09:13:51;;;;;;;2.47;1.23;;;16.80;99.90;;;;;;5140702;27;20444;-65
2022/06/08 09:16:39;;;;;;;1.80;1.23;;;16.90;99.90;;;;;;5138610;27;20551;-64
2022/06/08 09:19:41;;;;;;;1.50;1.40;;;16.90;99.90;;;;;;5133702;27;20461;-65
2022/06/08 09:22:28;;;;;;;1.20;1.03;;;16.90;99.90;;;;;;5092902;28;20461;-65
2022/06/08 09:25:01;;;;;;;1.57;1.47;;;16.90;99.90;;;;;;5081292;28;20459;-64
2022/06/08 09:27:35;;;;;;;1.40;1.30;;;16.90;99.90;;;;;;5079767;28;20460;-65
2022/06/08 09:30:20;;;;;;;2.47;1.50;;;16.90;99.90;;;;;;5080911;28;20444;-66
2022/06/08 09:32:53;;;;;;;1.83;1.53;;;16.90;99.90;;;;;;5084712;28;20451;-65
2022/06/08 09:35:29;;;;;;;1.27;1.20;;;16.90;99.90;;;;;;5095325;28;20478;-65
2022/06/08 09:38:04;;;;;;;1.30;1.03;;;16.90;99.90;;;;;;5089332;28;20547;-65
2022/06/08 09:40:40;;;;;;;2.70;1.67;;;16.90;99.90;;;;;;5087700;28;20465;-65
2022/06/08 09:43:36;;;;;;;1.77;1.67;;;16.80;99.90;;;;;;5082077;28;21076;-65
2022/06/08 09:46:12;;;;;;;1.57;1.47;;;16.80;99.90;;;;;;5081826;28;20445;-64
2022/06/08 09:51:59;;;;;;;2.20;1.60;;;16.70;99.90;;;;;;5090569;28;20492;-64
2022/06/08 09:54:41;;;;;;;2.27;1.70;;;16.60;99.90;;;;;;5082035;28;20427;-64
2022/06/08 09:57:26;;;;;;;1.70;1.60;;;16.60;99.90;;;;;;5124829;27;20427;-65
2022/06/08 10:00:17;;;;;;;1.20;1.20;;;16.60;99.90;;;;;;5135314;27;20831;-65
2022/06/08 10:02:58;;;;;;;2.10;1.47;;;16.60;99.90;;;;;;5140284;27;20447;-65
2022/06/08 10:05:37;;;;;;;2.70;1.80;;;16.60;99.90;;;;;;5130892;27;20462;-65
2022/06/08 10:08:20;;;;;;;1.33;1.23;;;16.60;99.90;;;;;;5135552;27;20449;-64
2022/06/08 10:11:02;;;;;;;1.60;1.50;;;16.60;99.90;;;;;;5139659;27;20544;-64
2022/06/08 10:13:38;;;;;;;1.00;0.90;;;16.60;99.90;;;;;;5143476;27;20529;-64
2022/06/08 10:16:16;;;;;;;2.60;1.20;;;16.60;99.90;;;;;;5131882;27;20532;-65
2022/06/08 10:18:51;;;;;;;1.13;1.13;;;16.60;99.90;;;;;;5140149;27;20543;-65
2022/06/08 10:21:27;;;;;;;1.87;1.20;;;16.60;99.90;;;;;;5134613;27;20459;-64
2022/06/08 10:24:03;;;;;;;1.37;1.27;;;16.60;99.90;;;;;;5135321;27;20456;-65
2022/06/08 10:26:39;;;;;;;2.03;1.73;;;16.60;99.90;;;;;;5138667;27;20440;-64
2022/06/08 10:29:22;;;;;;;1.30;1.20;;;16.60;99.90;;;;;;5146712;27;20437;-65
2022/06/08 10:31:58;;;;;;;2.00;1.40;;;16.60;99.90;;;;;;5142755;27;20491;-64
2022/06/08 10:34:31;;;;;;;1.23;1.10;;;16.70;99.90;;;;;;5142125;27;20540;-65
2022/06/08 10:37:06;;;;;;;2.53;1.30;;;16.60;99.90;;;;;;5143834;27;20456;-65
2022/06/08 10:39:37;;;;;;;1.37;1.27;;;16.60;99.90;;;;;;5145652;27;20861;-65
2022/06/08 10:42:42;;;;;;;1.30;1.20;;;16.60;99.90;;;;;;5145458;27;20456;-64
2022/06/08 10:45:47;;;;;;;1.30;1.20;;;16.50;99.90;;;;;;5141418;27;20935;-65
2022/06/08 10:48:37;;;;;;;1.30;1.20;;;16.60;99.90;;;;;;5073069;28;20426;-64
2022/06/08 10:51:26;;;;;;;1.27;1.10;;;16.50;99.90;;;;;;5063332;28;20444;-64
2022/06/08 10:57:01;;;;;;;1.30;1.20;;;16.50;99.90;;;;;;5069828;28;20463;-64
2022/06/08 10:59:33;;;;;;;1.53;1.43;;;16.60;99.90;;;;;;5076929;28;20462;-64
2022/06/08 11:02:25;;;;;;;1.40;1.30;;;16.60;99.90;;;;;;5066023;28;20464;-64
2022/06/08 11:05:13;;;;;;;3.90;1.40;;;16.50;99.90;;;;;;5062279;28;21110;-64
2022/06/08 11:08:17;;;;;;;1.73;1.20;;;16.50;99.90;;;;;;5062617;28;20443;-64
2022/06/08 11:11:01;;;;;;;2.00;1.87;;;16.50;99.90;;;;;;5073096;28;20469;-64
2022/06/08 11:13:39;;;;;;;1.27;1.17;;;16.50;99.90;;;;;;5080447;28;20470;-65
2022/06/08 11:16:20;;;;;;;1.77;1.30;;;16.50;99.90;;;;;;5070973;28;20453;-65
2022/06/08 11:18:56;;;;;;;1.20;1.20;;;16.50;99.90;;;;;;5064547;28;20475;-64
2022/06/08 11:21:44;;;;;;;1.83;1.23;;;16.50;99.90;;;;;;5080078;27;20463;-63
2022/06/08 11:24:27;;;;;;;1.57;1.40;;;16.50;99.90;;;;;;5142594;27;20461;-64
2022/06/08 11:27:29;;;;;;;1.87;1.60;;;16.50;99.90;;;;;;5141756;27;20460;-65
2022/06/08 11:30:01;;;;;;;1.33;1.23;;;16.60;99.90;;;;;;5146296;27;20530;-64
2022/06/08 11:33:16;;;;;;;1.50;1.40;;;16.50;99.90;;;;;;5144493;27;20492;-65
2022/06/08 11:36:12;;;;;;;1.53;1.43;;;16.50;99.90;;;;;;5143634;27;21000;-65
2022/06/08 11:39:04;;;;;;;1.10;1.00;;;16.50;99.90;;;;;;5135790;27;20830;-64
2022/06/08 11:41:41;;;;;;;1.43;1.33;;;16.50;99.90;;;;;;5142370;27;20465;-65
2022/06/08 11:44:19;;;;;;;2.00;1.33;;;16.40;99.90;;;;;;5139864;27;20474;-65
2022/06/08 11:46:53;;;;;;;2.30;1.17;;;16.50;99.90;;;;;;5145210;27;20501;-66
2022/06/08 11:49:32;;;;;;;1.30;1.20;;;16.50;99.90;;;;;;5141800;27;20464;-65
2022/06/08 11:52:24;;;;;;;1.30;1.20;;;16.40;99.90;;;;;;5152769;27;20586;-65
2022/06/08 11:55:10;;;;;;;1.43;1.33;;;16.40;99.90;;;;;;5143291;27;20469;-66
2022/06/08 11:57:46;;;;;;;0.90;0.83;;;16.30;99.90;;;;;;5131103;27;20472;-66
2022/06/08 12:00:25;;;;;;;1.63;1.20;;;16.30;99.90;;;;;;5142515;27;20531;-66
2022/06/08 12:03:00;;;;;;;1.40;1.30;;;16.40;99.90;;;;;;5147700;27;20467;-66
2022/06/08 12:05:37;;;;;;;1.40;1.30;;;16.40;99.90;;;;;;5143940;27;20479;-66
2022/06/08 12:08:16;;;;;;;1.10;1.00;;;16.30;99.90;;;;;;5143515;27;20435;-66
2022/06/08 12:11:07;;;;;;;1.50;1.27;;;16.30;99.90;;;;;;5136125;27;20529;-66
2022/06/08 12:13:54;;;;;;;1.70;1.47;;;16.30;99.90;;;;;;5140586;27;20472;-66
2022/06/08 12:16:30;;;;;;;1.40;1.30;;;16.30;99.90;;;;;;5144732;27;20448;-66
2022/06/08 12:19:06;;;;;;;1.17;1.17;;;16.30;99.90;;;;;;5143245;27;20469;-66
2022/06/08 12:21:41;;;;;;;1.73;1.27;;;16.20;99.90;;;;;;5148175;27;20459;-66
2022/06/08 12:24:26;;;;;;;1.17;1.17;;;16.20;99.90;;;;;;5140051;27;20443;-66
2022/06/08 12:27:21;;;;;;;1.40;1.30;;;16.20;99.90;;;;;;5141880;27;20772;-66
2022/06/08 12:29:55;;;;;;;1.43;1.33;;;16.20;99.90;;;;;;5129850;27;20940;-66
2022/06/08 12:32:30;;;;;;;1.20;1.10;;;16.20;99.90;;;;;;5133061;27;20469;-67
2022/06/08 12:35:28;;;;;;;1.10;1.00;;;16.30;99.90;;;;;;5143232;27;20495;-66
2022/06/08 12:38:22;;;;;;;1.40;1.20;;;16.20;99.90;;;;;;5143375;27;20509;-66
2022/06/08 12:41:05;;;;;;;1.37;1.20;;;16.20;99.90;;;;;;5132679;27;20454;-66
2022/06/08 12:43:39;;;;;;;1.40;1.23;;;16.20;99.90;;;;;;5149503;27;20449;-66
2022/06/08 12:46:26;;;;;;;1.83;1.40;;;16.30;99.90;;;;;;5143547;27;20460;-66
2022/06/08 12:49:19;;;;;;;1.50;1.40;;;16.30;99.90;;;;;;5143778;27;20457;-66
2022/06/08 12:51:57;;;;;;;1.47;1.37;;;16.30;99.90;;;;;;5135059;27;20426;-66
2022/06/08 12:54:33;;;;;;;1.90;1.50;;;16.30;99.90;;;;;;5146428;27;20449;-66
2022/06/08 12:57:14;;;;;;;1.63;1.53;;;16.20;99.90;;;;;;5144218;27;20569;-66
2022/06/08 12:59:46;;;;;;;1.63;1.53;;;16.20;99.90;;;;;;5143844;27;20459;-66
2022/06/08 13:02:19;;;;;;;1.60;1.40;;;16.30;99.90;;;;;;5146257;27;20460;-66
2022/06/08 13:04:52;;;;;;;2.80;1.57;;;16.30;99.90;;;;;;5136623;27;20432;-66
2022/06/08 13:07:36;;;;;;;1.60;1.50;;;16.40;99.90;;;;;;5141152;27;20468;-65
2022/06/08 13:10:09;;;;;;;1.50;1.40;;;16.40;99.90;;;;;;5141029;27;20455;-66
2022/06/08 13:12:43;;;;;;;1.10;1.00;;;16.40;99.90;;;;;;5137468;27;20470;-66
2022/06/08 13:15:19;;;;;;;1.87;1.37;;;16.40;99.90;;;;;;5134541;27;20470;-66
2022/06/08 13:17:51;;;;;;;1.50;1.40;;;16.30;99.90;;;;;;5139915;27;20453;-66
2022/06/08 13:20:24;;;;;;;1.23;1.10;;;16.30;99.90;;;;;;5141904;27;21252;-66
2022/06/08 13:22:55;;;;;;;1.30;1.17;;;16.30;99.90;;;;;;5147470;27;20457;-66
2022/06/08 13:25:36;;;;;;;0.93;0.93;;;16.30;99.90;;;;;;5141924;27;20457;-66
2022/06/08 13:28:14;;;;;;;1.47;1.23;;;16.40;99.90;;;;;;5139814;27;20465;-66
2022/06/08 13:30:46;;;;;;;1.20;1.10;;;16.40;99.90;;;;;;5133597;27;20431;-66
2022/06/08 13:36:19;;;;;;;2.03;1.50;;;16.60;99.90;;;;;;5141660;27;20423;-67
2022/06/08 13:38:52;;;;;;;2.80;1.83;;;16.50;99.90;;;;;;5141296;27;20530;-65
2022/06/08 13:41:28;;;;;;;1.27;1.20;;;16.50;99.90;;;;;;5138792;27;20494;-67
2022/06/08 13:43:59;;;;;;;0.70;0.70;;;16.40;99.90;;;;;;5142281;27;20459;-66
2022/06/08 13:46:33;;;;;;;1.10;1.00;;;16.50;99.90;;;;;;5138199;27;20465;-66
2022/06/08 13:49:04;;;;;;;1.17;0.83;;;16.50;99.90;;;;;;5141064;27;20433;-64